createdAt,value
2024-01-04T00:00:09.227Z,88
2024-01-04T00:00:40.052Z,88
2024-01-04T00:01:10.111Z,88
2024-01-04T00:01:40.912Z,88
2024-01-04T00:02:11.811Z,88
2024-01-04T00:02:42.860Z,87
2024-01-04T00:03:14.012Z,87
2024-01-04T00:03:45.286Z,87
2024-01-04T00:04:16.191Z,87
2024-01-04T00:04:47.232Z,87
2024-01-04T00:05:18.640Z,87
2024-01-04T00:05:49.386Z,87
2024-01-04T00:06:20.761Z,86
2024-01-04T00:06:51.188Z,86
2024-01-04T00:07:22.145Z,86
2024-01-04T00:07:53.240Z,86
2024-01-04T00:08:24.359Z,86
2024-01-04T00:08:55.405Z,86
2024-01-04T00:09:26.167Z,86
2024-01-04T00:09:57.174Z,86
2024-01-04T00:10:28.767Z,86
2024-01-04T00:10:59.317Z,86
2024-01-04T00:11:30.670Z,86
2024-01-04T00:12:01.322Z,86
2024-01-04T00:12:32.381Z,86
2024-01-04T00:13:03.360Z,86
2024-01-04T00:13:34.328Z,86
2024-01-04T00:14:05.397Z,86
2024-01-04T00:14:36.323Z,86
2024-01-04T00:15:07.840Z,85
2024-01-04T00:15:38.383Z,85
2024-01-04T00:16:09.332Z,85
2024-01-04T00:16:40.411Z,85
2024-01-04T00:17:11.321Z,85
2024-01-04T00:17:42.731Z,85
2024-01-04T00:18:13.892Z,85
2024-01-04T00:18:44.420Z,85
2024-01-04T00:19:15.614Z,84
2024-01-04T00:19:46.351Z,84
2024-01-04T00:20:17.762Z,84
2024-01-04T00:20:48.693Z,84
2024-01-04T00:21:19.338Z,84
2024-01-04T00:21:50.333Z,84
2024-01-04T00:22:21.390Z,84
2024-01-04T00:22:52.283Z,84
2024-01-04T00:23:23.381Z,84
2024-01-04T00:23:54.375Z,85
2024-01-04T00:24:25.438Z,85
2024-01-04T00:24:56.362Z,85
2024-01-04T00:25:27.663Z,85
2024-01-04T00:25:58.382Z,85
2024-01-04T00:26:29.612Z,85
2024-01-04T00:27:00.271Z,85
2024-01-04T00:27:31.360Z,85
2024-01-04T00:28:02.309Z,85
2024-01-04T00:28:33.371Z,85
2024-01-04T00:29:04.347Z,85
2024-01-04T00:29:35.467Z,85
2024-01-04T00:30:07.070Z,84
2024-01-04T00:30:37.386Z,84
2024-01-04T00:31:09.762Z,84
2024-01-04T00:31:39.361Z,84
2024-01-04T00:32:11.446Z,84
2024-01-04T00:32:41.406Z,84
2024-01-04T00:33:12.487Z,84
2024-01-04T00:33:43.506Z,84
2024-01-04T00:34:14.644Z,84
2024-01-04T00:34:45.376Z,84
2024-01-04T00:35:16.892Z,84
2024-01-04T00:35:47.579Z,84
2024-01-04T00:36:18.507Z,84
2024-01-04T00:36:49.371Z,84
2024-01-04T00:37:22.588Z,84
2024-01-04T00:37:51.373Z,84
2024-01-04T00:38:22.406Z,84
2024-01-04T00:38:53.463Z,84
2024-01-04T00:39:24.283Z,84
2024-01-04T00:39:55.420Z,84
2024-01-04T00:40:26.796Z,85
2024-01-04T00:40:57.312Z,84
2024-01-04T00:41:28.423Z,84
2024-01-04T00:41:59.440Z,84
2024-01-04T00:42:30.379Z,84
2024-01-04T00:43:01.369Z,84
2024-01-04T00:43:32.307Z,84
2024-01-04T00:44:03.731Z,84
2024-01-04T00:44:34.406Z,84
2024-01-04T00:45:05.873Z,84
2024-01-04T00:45:36.357Z,84
2024-01-04T00:46:07.427Z,84
2024-01-04T00:46:38.360Z,84
2024-01-04T00:47:09.389Z,84
2024-01-04T00:47:40.444Z,84
2024-01-04T00:48:11.790Z,84
2024-01-04T00:48:42.452Z,84
2024-01-04T00:49:13.555Z,84
2024-01-04T00:49:44.468Z,84
2024-01-04T00:50:16.031Z,85
2024-01-04T00:50:46.390Z,84
2024-01-04T00:51:17.785Z,84
2024-01-04T00:51:48.331Z,84
2024-01-04T00:52:19.372Z,84
2024-01-04T00:53:00.264Z,84
2024-01-04T00:53:21.336Z,84
2024-01-04T00:53:52.428Z,84
2024-01-04T00:54:23.590Z,83
2024-01-04T00:54:54.368Z,83
2024-01-04T00:55:25.609Z,83
2024-01-04T00:55:56.360Z,83
2024-01-04T00:56:27.435Z,83
2024-01-04T00:56:58.449Z,83
2024-01-04T00:57:29.373Z,83
2024-01-04T00:58:00.297Z,83
2024-01-04T00:58:31.394Z,83
2024-01-04T00:59:02.406Z,83
2024-01-04T00:59:33.403Z,83
2024-01-04T01:00:04.957Z,83
2024-01-04T01:00:35.430Z,83
2024-01-04T01:01:06.353Z,83
2024-01-04T01:01:37.657Z,83
2024-01-04T01:02:08.396Z,83
2024-01-04T01:02:39.417Z,82
2024-01-04T01:03:10.489Z,83
2024-01-04T01:03:42.640Z,82
2024-01-04T01:04:12.640Z,82
2024-01-04T01:04:43.633Z,82
2024-01-04T01:05:14.920Z,82
2024-01-04T01:05:45.687Z,82
2024-01-04T01:06:17.764Z,82
2024-01-04T01:06:47.824Z,82
2024-01-04T01:07:18.672Z,83
2024-01-04T01:07:49.649Z,82
2024-01-04T01:08:20.598Z,82
2024-01-04T01:08:51.683Z,83
2024-01-04T01:09:22.706Z,82
2024-01-04T01:09:53.682Z,82
2024-01-04T01:10:25.288Z,82
2024-01-04T01:10:55.620Z,82
2024-01-04T01:11:26.702Z,82
2024-01-04T01:11:57.699Z,82
2024-01-04T01:12:28.578Z,82
2024-01-04T01:12:59.679Z,82
2024-01-04T01:13:30.661Z,82
2024-01-04T01:14:01.650Z,82
2024-01-04T01:14:32.693Z,82
2024-01-04T01:15:04.838Z,82
2024-01-04T01:15:34.655Z,82
2024-01-04T01:16:05.712Z,82
2024-01-04T01:16:36.604Z,83
2024-01-04T01:17:07.709Z,83
2024-01-04T01:17:38.792Z,83
2024-01-04T01:18:09.785Z,83
2024-01-04T01:18:40.864Z,83
2024-01-04T01:19:12.067Z,82
2024-01-04T01:19:42.749Z,83
2024-01-04T01:20:14.132Z,82
2024-01-04T01:20:44.614Z,82
2024-01-04T01:21:16.015Z,83
2024-01-04T01:21:46.759Z,83
2024-01-04T01:22:17.649Z,83
2024-01-04T01:22:48.611Z,83
2024-01-04T01:23:19.659Z,83
2024-01-04T01:23:50.691Z,83
2024-01-04T01:24:21.683Z,83
2024-01-04T01:24:52.659Z,82
2024-01-04T01:25:23.974Z,82
2024-01-04T01:25:54.879Z,83
2024-01-04T01:26:25.897Z,82
2024-01-04T01:26:56.706Z,82
2024-01-04T01:27:27.711Z,83
2024-01-04T01:27:58.932Z,83
2024-01-04T01:28:29.690Z,83
2024-01-04T01:29:00.687Z,83
2024-01-04T01:29:31.717Z,83
2024-01-04T01:30:03.211Z,83
2024-01-04T01:30:33.653Z,83
2024-01-04T01:31:04.618Z,84
2024-01-04T01:31:35.747Z,84
2024-01-04T01:32:06.683Z,84
2024-01-04T01:32:37.619Z,85
2024-01-04T01:33:08.764Z,85
2024-01-04T01:33:39.708Z,84
2024-01-04T01:34:10.706Z,84
2024-01-04T01:34:41.627Z,84
2024-01-04T01:35:13.965Z,84
2024-01-04T01:35:43.693Z,84
2024-01-04T01:36:14.690Z,84
2024-01-04T01:36:45.927Z,84
2024-01-04T01:37:16.841Z,84
2024-01-04T01:37:47.612Z,83
2024-01-04T01:38:18.587Z,83
2024-01-04T01:38:49.701Z,83
2024-01-04T01:39:20.619Z,83
2024-01-04T01:39:51.603Z,83
2024-01-04T01:40:23.047Z,83
2024-01-04T01:40:53.534Z,83
2024-01-04T01:41:24.624Z,83
2024-01-04T01:41:55.630Z,83
2024-01-04T01:42:26.599Z,83
2024-01-04T01:42:57.634Z,83
2024-01-04T01:43:28.619Z,83
2024-01-04T01:43:59.582Z,83
2024-01-04T01:44:30.559Z,83
2024-01-04T01:45:02.182Z,82
2024-01-04T01:45:32.858Z,82
2024-01-04T01:46:03.670Z,82
2024-01-04T01:46:34.699Z,82
2024-01-04T01:47:05.642Z,82
2024-01-04T01:47:36.737Z,82
2024-01-04T01:48:07.842Z,82
2024-01-04T01:48:38.813Z,82
2024-01-04T01:49:09.795Z,82
2024-01-04T01:49:40.656Z,82
2024-01-04T01:50:12.271Z,82
2024-01-04T01:50:42.632Z,83
2024-01-04T01:51:14.054Z,83
2024-01-04T01:51:44.606Z,83
2024-01-04T01:52:15.616Z,83
2024-01-04T01:52:46.624Z,82
2024-01-04T01:53:17.621Z,82
2024-01-04T01:53:48.725Z,83
2024-01-04T01:54:19.893Z,83
2024-01-04T01:54:50.653Z,83
2024-01-04T01:55:22.337Z,83
2024-01-04T01:55:52.601Z,83
2024-01-04T01:56:23.942Z,82
2024-01-04T01:56:54.657Z,82
2024-01-04T01:57:25.627Z,82
2024-01-04T01:57:56.622Z,82
2024-01-04T01:58:27.636Z,82
2024-01-04T01:58:58.652Z,82
2024-01-04T01:59:29.623Z,82
2024-01-04T02:00:01.578Z,82
2024-01-04T02:00:31.791Z,82
2024-01-04T02:01:02.542Z,82
2024-01-04T02:01:33.612Z,83
2024-01-04T02:02:04.600Z,83
2024-01-04T02:02:35.640Z,83
2024-01-04T02:03:07.245Z,83
2024-01-04T02:03:37.684Z,83
2024-01-04T02:04:08.588Z,82
2024-01-04T02:04:39.605Z,82
2024-01-04T02:05:11.043Z,82
2024-01-04T02:05:41.658Z,82
2024-01-04T02:06:12.912Z,82
2024-01-04T02:06:44.629Z,82
2024-01-04T02:07:14.624Z,82
2024-01-04T02:07:45.556Z,83
2024-01-04T02:08:16.673Z,82
2024-01-04T02:08:47.533Z,82
2024-01-04T02:09:18.535Z,82
2024-01-04T02:09:49.567Z,82
2024-01-04T02:10:20.868Z,82
2024-01-04T02:10:51.446Z,82
2024-01-04T02:11:22.508Z,82
2024-01-04T02:11:53.958Z,81
2024-01-04T02:12:24.609Z,81
2024-01-04T02:12:55.466Z,81
2024-01-04T02:13:26.675Z,82
2024-01-04T02:13:57.385Z,82
2024-01-04T02:14:28.436Z,82
2024-01-04T02:14:59.450Z,82
2024-01-04T02:15:31.072Z,81
2024-01-04T02:16:01.325Z,82
2024-01-04T02:16:32.624Z,81
2024-01-04T02:17:03.440Z,82
2024-01-04T02:17:34.583Z,82
2024-01-04T02:18:05.540Z,82
2024-01-04T02:18:36.601Z,82
2024-01-04T02:19:07.558Z,82
2024-01-04T02:19:38.511Z,82
2024-01-04T02:20:09.599Z,81
2024-01-04T02:20:40.695Z,82
2024-01-04T02:21:11.518Z,82
2024-01-04T02:21:42.655Z,82
2024-01-04T02:22:13.390Z,82
2024-01-04T02:22:44.412Z,82
2024-01-04T02:23:15.378Z,81
2024-01-04T02:23:46.467Z,81
2024-01-04T02:24:17.766Z,81
2024-01-04T02:24:48.406Z,82
2024-01-04T02:25:19.672Z,82
2024-01-04T02:25:50.637Z,82
2024-01-04T02:26:21.379Z,82
2024-01-04T02:26:52.653Z,82
2024-01-04T02:27:23.466Z,81
2024-01-04T02:27:54.469Z,81
2024-01-04T02:28:25.395Z,81
2024-01-04T02:28:56.451Z,81
2024-01-04T02:29:27.709Z,81
2024-01-04T02:29:58.450Z,82
2024-01-04T02:30:30.467Z,82
2024-01-04T02:31:00.582Z,82
2024-01-04T02:31:31.426Z,82
2024-01-04T02:32:02.442Z,81
2024-01-04T02:32:33.586Z,81
2024-01-04T02:33:04.567Z,81
2024-01-04T02:33:35.523Z,81
2024-01-04T02:34:06.546Z,81
2024-01-04T02:34:37.470Z,81
2024-01-04T02:35:08.744Z,81
2024-01-04T02:35:39.440Z,81
2024-01-04T02:36:10.607Z,81
2024-01-04T02:36:41.411Z,81
2024-01-04T02:37:12.406Z,81
2024-01-04T02:37:43.361Z,82
2024-01-04T02:38:15.750Z,82
2024-01-04T02:38:45.414Z,81
2024-01-04T02:39:16.650Z,81
2024-01-04T02:39:47.468Z,81
2024-01-04T02:40:18.826Z,81
2024-01-04T02:40:49.414Z,81
2024-01-04T02:41:20.478Z,81
2024-01-04T02:41:51.529Z,81
2024-01-04T02:42:23.029Z,81
2024-01-04T02:42:53.395Z,81
2024-01-04T02:43:24.450Z,81
2024-01-04T02:43:55.490Z,82
2024-01-04T02:44:27.127Z,81
2024-01-04T02:44:57.571Z,81
2024-01-04T02:45:29.223Z,81
2024-01-04T02:45:59.433Z,81
2024-01-04T02:46:30.381Z,81
2024-01-04T02:47:01.671Z,81
2024-01-04T02:47:32.630Z,81
2024-01-04T02:48:03.622Z,81
2024-01-04T02:48:34.601Z,81
2024-01-04T02:49:05.696Z,81
2024-01-04T02:49:36.745Z,82
2024-01-04T02:50:07.717Z,82
2024-01-04T02:50:38.522Z,82
2024-01-04T02:51:09.579Z,82
2024-01-04T02:51:40.725Z,82
2024-01-04T02:52:11.506Z,82
2024-01-04T02:52:42.542Z,81
2024-01-04T02:53:13.461Z,81
2024-01-04T02:53:44.535Z,81
2024-01-04T02:54:15.811Z,81
2024-01-04T02:54:46.499Z,81
2024-01-04T02:55:17.978Z,82
2024-01-04T02:55:49.306Z,82
2024-01-04T02:56:19.492Z,81
2024-01-04T02:56:50.608Z,82
2024-01-04T02:57:21.550Z,82
2024-01-04T02:57:52.504Z,82
2024-01-04T02:58:23.523Z,83
2024-01-04T02:58:54.528Z,83
2024-01-04T02:59:25.482Z,83
2024-01-04T02:59:56.595Z,83
2024-01-04T03:00:28.496Z,84
2024-01-04T03:00:58.863Z,84
2024-01-04T03:01:29.421Z,84
2024-01-04T03:02:00.492Z,86
2024-01-04T03:02:31.540Z,86
2024-01-04T03:03:02.427Z,86
2024-01-04T03:03:33.527Z,86
2024-01-04T03:04:04.646Z,86
2024-01-04T03:04:35.919Z,86
2024-01-04T03:05:06.862Z,86
2024-01-04T03:05:37.645Z,85
2024-01-04T03:06:09.233Z,86
2024-01-04T03:06:39.651Z,85
2024-01-04T03:07:10.602Z,86
2024-01-04T03:07:41.639Z,86
2024-01-04T03:08:12.642Z,86
2024-01-04T03:08:43.705Z,87
2024-01-04T03:09:14.683Z,87
2024-01-04T03:09:46.503Z,87
2024-01-04T03:10:16.439Z,87
2024-01-04T03:10:47.044Z,87
2024-01-04T03:11:18.227Z,87
2024-01-04T03:11:49.184Z,87
2024-01-04T03:12:20.368Z,87
2024-01-04T03:12:51.018Z,87
2024-01-04T03:13:22.332Z,87
2024-01-04T03:13:53.098Z,87
2024-01-04T03:14:24.068Z,87
2024-01-04T03:14:55.195Z,87
2024-01-04T03:15:26.620Z,88
2024-01-04T03:15:57.089Z,88
2024-01-04T03:16:28.240Z,88
2024-01-04T03:16:59.018Z,88
2024-01-04T03:17:30.142Z,88
2024-01-04T03:18:01.253Z,88
2024-01-04T03:18:32.252Z,88
2024-01-04T03:19:03.377Z,88
2024-01-04T03:19:34.064Z,88
2024-01-04T03:20:05.393Z,88
2024-01-04T03:20:36.040Z,88
2024-01-04T03:21:07.168Z,88
2024-01-04T03:21:38.286Z,88
2024-01-04T03:22:09.342Z,88
2024-01-04T03:22:40.082Z,88
2024-01-04T03:23:11.138Z,89
2024-01-04T03:23:42.063Z,89
2024-01-04T03:24:13.556Z,89
2024-01-04T03:24:44.071Z,89
2024-01-04T03:25:15.570Z,89
2024-01-04T03:25:46.043Z,88
2024-01-04T03:26:17.205Z,88
2024-01-04T03:26:48.335Z,89
2024-01-04T03:27:19.082Z,89
2024-01-04T03:27:50.023Z,89
2024-01-04T03:28:21.097Z,89
2024-01-04T03:28:52.051Z,89
2024-01-04T03:29:23.097Z,89
2024-01-04T03:29:54.176Z,90
2024-01-04T03:30:26.287Z,90
2024-01-04T03:30:57.194Z,90
2024-01-04T03:31:27.466Z,90
2024-01-04T03:31:58.087Z,90
2024-01-04T03:32:29.068Z,90
2024-01-04T03:33:00.456Z,90
2024-01-04T03:33:31.303Z,90
2024-01-04T03:34:02.265Z,90
2024-01-04T03:34:33.323Z,90
2024-01-04T03:35:04.337Z,90
2024-01-04T03:35:35.136Z,90
2024-01-04T03:36:06.620Z,90
2024-01-04T03:36:37.159Z,91
2024-01-04T03:37:08.147Z,91
2024-01-04T03:37:39.171Z,91
2024-01-04T03:38:10.153Z,91
2024-01-04T03:38:41.100Z,91
2024-01-04T03:39:12.207Z,91
2024-01-04T03:39:43.439Z,91
2024-01-04T03:40:14.496Z,91
2024-01-04T03:40:45.070Z,91
2024-01-04T03:41:17.360Z,91
2024-01-04T03:41:47.123Z,91
2024-01-04T03:42:19.055Z,91
2024-01-04T03:42:49.141Z,91
2024-01-04T03:43:20.080Z,92
2024-01-04T03:43:51.146Z,92
2024-01-04T03:44:22.110Z,91
2024-01-04T03:44:53.056Z,91
2024-01-04T03:45:24.827Z,91
2024-01-04T03:45:55.156Z,91
2024-01-04T03:46:26.514Z,91
2024-01-04T03:46:57.099Z,91
2024-01-04T03:47:28.171Z,91
2024-01-04T03:47:59.186Z,91
2024-01-04T03:48:30.332Z,91
2024-01-04T03:49:01.341Z,91
2024-01-04T03:49:32.114Z,91
2024-01-04T03:50:03.346Z,91
2024-01-04T03:50:34.108Z,91
2024-01-04T03:51:05.115Z,90
2024-01-04T03:51:36.172Z,91
2024-01-04T03:52:07.159Z,91
2024-01-04T03:52:38.084Z,90
2024-01-04T03:53:09.093Z,90
2024-01-04T03:53:40.126Z,90
2024-01-04T03:54:11.437Z,90
2024-01-04T03:54:42.146Z,90
2024-01-04T03:55:13.356Z,90
2024-01-04T03:55:44.050Z,90
2024-01-04T03:56:15.299Z,90
2024-01-04T03:56:46.160Z,90
2024-01-04T03:57:17.433Z,90
2024-01-04T03:57:48.461Z,90
2024-01-04T03:58:19.185Z,90
2024-01-04T03:58:50.217Z,90
2024-01-04T03:59:21.182Z,90
2024-01-04T03:59:52.136Z,90
2024-01-04T04:00:29.138Z,90
2024-01-04T04:00:54.286Z,90
2024-01-04T04:01:25.236Z,90
2024-01-04T04:01:56.023Z,90
2024-01-04T04:02:27.062Z,91
2024-01-04T04:02:58.237Z,91
2024-01-04T04:03:29.136Z,91
2024-01-04T04:04:00.378Z,91
2024-01-04T04:04:31.181Z,91
2024-01-04T04:05:02.578Z,91
2024-01-04T04:05:33.396Z,92
2024-01-04T04:06:04.621Z,92
2024-01-04T04:06:35.231Z,92
2024-01-04T04:07:06.249Z,92
2024-01-04T04:07:37.272Z,92
2024-01-04T04:08:08.223Z,93
2024-01-04T04:08:39.388Z,93
2024-01-04T04:09:10.303Z,93
2024-01-04T04:09:41.344Z,93
2024-01-04T04:10:12.853Z,93
2024-01-04T04:10:43.502Z,93
2024-01-04T04:11:14.679Z,93
2024-01-04T04:11:45.651Z,93
2024-01-04T04:12:17.233Z,93
2024-01-04T04:12:48.457Z,93
2024-01-04T04:13:18.568Z,93
2024-01-04T04:13:49.485Z,93
2024-01-04T04:14:20.410Z,93
2024-01-04T04:14:51.908Z,93
2024-01-04T04:15:23.325Z,93
2024-01-04T04:15:53.493Z,93
2024-01-04T04:16:24.542Z,94
2024-01-04T04:16:55.576Z,94
2024-01-04T04:17:26.487Z,94
2024-01-04T04:17:57.578Z,94
2024-01-04T04:18:28.565Z,94
2024-01-04T04:18:59.564Z,94
2024-01-04T04:19:30.797Z,94
2024-01-04T04:20:02.041Z,94
2024-01-04T04:20:32.452Z,94
2024-01-04T04:21:03.589Z,94
2024-01-04T04:21:34.490Z,94
2024-01-04T04:22:05.475Z,94
2024-01-04T04:22:36.490Z,94
2024-01-04T04:23:07.491Z,94
2024-01-04T04:23:38.801Z,94
2024-01-04T04:24:09.517Z,94
2024-01-04T04:24:40.469Z,94
2024-01-04T04:25:11.853Z,94
2024-01-04T04:25:42.433Z,94
2024-01-04T04:26:13.473Z,94
2024-01-04T04:26:44.496Z,94
2024-01-04T04:27:15.593Z,94
2024-01-04T04:27:46.493Z,94
2024-01-04T04:28:17.501Z,94
2024-01-04T04:28:48.592Z,94
2024-01-04T04:29:19.465Z,94
2024-01-04T04:29:50.510Z,94
2024-01-04T04:30:22.727Z,94
2024-01-04T04:30:52.505Z,94
2024-01-04T04:31:23.532Z,94
2024-01-04T04:31:54.934Z,94
2024-01-04T04:32:25.773Z,94
2024-01-04T04:32:56.574Z,94
2024-01-04T04:33:27.809Z,94
2024-01-04T04:33:58.658Z,95
2024-01-04T04:34:29.479Z,95
2024-01-04T04:35:00.753Z,94
2024-01-04T04:35:31.466Z,94
2024-01-04T04:36:02.867Z,94
2024-01-04T04:36:33.618Z,94
2024-01-04T04:37:04.541Z,94
2024-01-04T04:37:35.590Z,94
2024-01-04T04:38:06.553Z,94
2024-01-04T04:38:37.518Z,94
2024-01-04T04:39:08.607Z,94
2024-01-04T04:39:39.496Z,94
2024-01-04T04:40:13.807Z,95
2024-01-04T04:40:41.424Z,95
2024-01-04T04:41:12.786Z,95
2024-01-04T04:41:43.638Z,95
2024-01-04T04:42:15.065Z,94
2024-01-04T04:42:45.560Z,94
2024-01-04T04:43:16.759Z,94
2024-01-04T04:43:47.521Z,94
2024-01-04T04:44:19.444Z,94
2024-01-04T04:44:49.576Z,94
2024-01-04T04:45:21.343Z,94
2024-01-04T04:45:51.506Z,94
2024-01-04T04:46:22.666Z,94
2024-01-04T04:46:53.510Z,94
2024-01-04T04:47:25.213Z,94
2024-01-04T04:47:55.639Z,94
2024-01-04T04:48:26.806Z,94
2024-01-04T04:48:57.677Z,94
2024-01-04T04:49:28.645Z,95
2024-01-04T04:49:59.842Z,95
2024-01-04T04:50:30.986Z,95
2024-01-04T04:51:01.695Z,95
2024-01-04T04:51:32.560Z,95
2024-01-04T04:52:03.541Z,95
2024-01-04T04:52:34.463Z,94
2024-01-04T04:53:05.522Z,94
2024-01-04T04:53:36.565Z,94
2024-01-04T04:54:07.573Z,94
2024-01-04T04:54:38.551Z,94
2024-01-04T04:55:10.614Z,94
2024-01-04T04:55:40.453Z,94
2024-01-04T04:56:11.761Z,94
2024-01-04T04:56:42.572Z,94
2024-01-04T04:57:13.540Z,95
2024-01-04T04:57:44.543Z,95
2024-01-04T04:58:15.755Z,95
2024-01-04T04:58:46.761Z,95
2024-01-04T04:59:17.477Z,95
2024-01-04T04:59:48.758Z,95
2024-01-04T05:00:20.819Z,95
2024-01-04T05:00:50.532Z,95
2024-01-04T05:01:21.473Z,95
2024-01-04T05:01:52.535Z,95
2024-01-04T05:02:23.541Z,94
2024-01-04T05:02:54.693Z,94
2024-01-04T05:03:25.707Z,95
2024-01-04T05:03:55.874Z,95
2024-01-04T05:04:26.803Z,95
2024-01-04T05:04:57.891Z,95
2024-01-04T05:05:29.143Z,95
2024-01-04T05:05:59.935Z,95
2024-01-04T05:06:30.825Z,95
2024-01-04T05:07:01.845Z,94
2024-01-04T05:07:15.271Z,94
2024-01-04T05:07:45.833Z,95
2024-01-04T05:08:17.147Z,95
2024-01-04T05:08:47.921Z,95
2024-01-04T05:09:19.298Z,95
2024-01-04T05:09:49.810Z,95
2024-01-04T05:10:21.076Z,94
2024-01-04T05:10:51.792Z,94
2024-01-04T05:11:22.835Z,94
2024-01-04T05:11:53.896Z,94
2024-01-04T05:12:24.947Z,94
2024-01-04T05:12:55.782Z,94
2024-01-04T05:13:26.919Z,93
2024-01-04T05:13:57.879Z,93
2024-01-04T05:14:28.838Z,94
2024-01-04T05:14:59.787Z,94
2024-01-04T05:15:31.547Z,94
2024-01-04T05:16:01.763Z,94
2024-01-04T05:16:32.786Z,94
2024-01-04T05:17:04.081Z,94
2024-01-04T05:17:34.981Z,94
2024-01-04T05:18:06.131Z,94
2024-01-04T05:18:36.959Z,94
2024-01-04T05:19:07.877Z,94
2024-01-04T05:19:38.865Z,94
2024-01-04T05:20:10.253Z,93
2024-01-04T05:20:40.819Z,93
2024-01-04T05:21:11.872Z,93
2024-01-04T05:21:42.858Z,93
2024-01-04T05:22:13.892Z,93
2024-01-04T05:22:44.852Z,93
2024-01-04T05:23:15.767Z,93
2024-01-04T05:23:47.149Z,93
2024-01-04T05:24:18.098Z,93
2024-01-04T05:24:48.871Z,93
2024-01-04T05:25:20.537Z,93
2024-01-04T05:25:51.967Z,93
2024-01-04T05:26:21.918Z,93
2024-01-04T05:26:52.838Z,93
2024-01-04T05:27:23.851Z,93
2024-01-04T05:27:54.881Z,93
2024-01-04T05:28:25.870Z,93
2024-01-04T05:28:57.139Z,93
2024-01-04T05:29:27.846Z,92
2024-01-04T05:29:58.908Z,92
2024-01-04T05:30:30.715Z,92
2024-01-04T05:31:00.818Z,92
2024-01-04T05:31:31.863Z,92
2024-01-04T05:32:02.842Z,92
2024-01-04T05:32:33.979Z,92
2024-01-04T05:33:05.100Z,92
2024-01-04T05:33:36.002Z,92
2024-01-04T05:34:07.101Z,92
2024-01-04T05:34:38.267Z,92
2024-01-04T05:35:09.080Z,92
2024-01-04T05:35:40.042Z,91
2024-01-04T05:36:13.368Z,91
2024-01-04T05:36:41.918Z,91
2024-01-04T05:37:12.869Z,91
2024-01-04T05:37:43.839Z,91
2024-01-04T05:38:14.852Z,91
2024-01-04T05:38:45.836Z,91
2024-01-04T05:39:16.992Z,91
2024-01-04T05:39:47.814Z,91
2024-01-04T05:40:19.092Z,91
2024-01-04T05:40:49.752Z,91
2024-01-04T05:41:21.349Z,91
2024-01-04T05:41:51.913Z,91
2024-01-04T05:42:22.858Z,91
2024-01-04T05:42:53.809Z,91
2024-01-04T05:43:25.179Z,90
2024-01-04T05:43:55.821Z,90
2024-01-04T05:44:26.842Z,90
2024-01-04T05:44:58.319Z,90
2024-01-04T05:45:29.486Z,90
2024-01-04T05:45:59.794Z,90
2024-01-04T05:46:30.828Z,90
2024-01-04T05:47:01.826Z,90
2024-01-04T05:47:32.859Z,90
2024-01-04T05:48:04.398Z,90
2024-01-04T05:48:35.081Z,90
2024-01-04T05:49:06.028Z,90
2024-01-04T05:49:36.930Z,90
2024-01-04T05:50:08.144Z,90
2024-01-04T05:50:38.839Z,89
2024-01-04T05:51:09.891Z,89
2024-01-04T05:51:42.733Z,90
2024-01-04T05:52:12.148Z,90
2024-01-04T05:52:42.804Z,90
2024-01-04T05:53:14.165Z,90
2024-01-04T05:53:44.883Z,90
2024-01-04T05:54:16.300Z,90
2024-01-04T05:54:46.860Z,90
2024-01-04T05:55:18.129Z,90
2024-01-04T05:55:48.817Z,90
2024-01-04T05:56:19.901Z,90
2024-01-04T05:56:50.877Z,90
2024-01-04T05:57:22.892Z,90
2024-01-04T05:57:52.867Z,90
2024-01-04T05:58:24.044Z,90
2024-01-04T05:58:54.864Z,90
2024-01-04T05:59:25.871Z,90
2024-01-04T05:59:56.900Z,90
2024-01-04T06:00:28.927Z,90
2024-01-04T06:00:59.213Z,90
2024-01-04T06:01:29.762Z,90
2024-01-04T06:02:00.885Z,90
2024-01-04T06:02:31.767Z,90
2024-01-04T06:03:02.930Z,90
2024-01-04T06:03:34.165Z,89
2024-01-04T06:04:04.237Z,89
2024-01-04T06:04:35.138Z,89
2024-01-04T06:05:06.445Z,89
2024-01-04T06:05:37.251Z,89
2024-01-04T06:06:08.491Z,89
2024-01-04T06:06:39.191Z,89
2024-01-04T06:07:10.281Z,89
2024-01-04T06:07:41.118Z,89
2024-01-04T06:08:12.107Z,89
2024-01-04T06:08:43.386Z,89
2024-01-04T06:09:14.157Z,89
2024-01-04T06:09:45.509Z,90
2024-01-04T06:10:16.500Z,89
2024-01-04T06:10:47.023Z,89
2024-01-04T06:11:18.035Z,90
2024-01-04T06:11:49.170Z,89
2024-01-04T06:12:20.364Z,89
2024-01-04T06:12:51.117Z,89
2024-01-04T06:13:22.151Z,89
2024-01-04T06:13:53.409Z,89
2024-01-04T06:14:24.028Z,89
2024-01-04T06:14:55.168Z,89
2024-01-04T06:15:27.271Z,89
2024-01-04T06:15:57.057Z,89
2024-01-04T06:16:28.035Z,89
2024-01-04T06:16:59.076Z,89
2024-01-04T06:17:30.191Z,89
2024-01-04T06:18:01.162Z,89
2024-01-04T06:18:32.517Z,90
2024-01-04T06:19:03.254Z,89
2024-01-04T06:19:34.259Z,89
2024-01-04T06:20:05.413Z,89
2024-01-04T06:20:36.104Z,89
2024-01-04T06:21:07.207Z,89
2024-01-04T06:21:38.076Z,89
2024-01-04T06:22:09.087Z,89
2024-01-04T06:22:40.008Z,89
2024-01-04T06:23:11.087Z,89
2024-01-04T06:23:42.205Z,89
2024-01-04T06:24:13.366Z,88
2024-01-04T06:24:44.069Z,89
2024-01-04T06:25:16.100Z,89
2024-01-04T06:25:46.033Z,89
2024-01-04T06:26:17.369Z,89
2024-01-04T06:26:48.047Z,89
2024-01-04T06:27:19.367Z,88
2024-01-04T06:27:50.127Z,88
2024-01-04T06:28:21.360Z,88
2024-01-04T06:28:52.987Z,89
2024-01-04T06:29:23.068Z,89
2024-01-04T06:29:54.103Z,89
2024-01-04T06:30:26.598Z,89
2024-01-04T06:30:56.295Z,88
2024-01-04T06:31:27.171Z,89
2024-01-04T06:31:58.111Z,88
2024-01-04T06:32:29.122Z,89
2024-01-04T06:33:00.470Z,88
2024-01-04T06:33:31.225Z,89
2024-01-04T06:34:02.314Z,89
2024-01-04T06:34:33.100Z,88
2024-01-04T06:35:04.229Z,88
2024-01-04T06:35:35.177Z,88
2024-01-04T06:36:06.502Z,88
2024-01-04T06:36:37.123Z,88
2024-01-04T06:37:08.105Z,89
2024-01-04T06:37:39.120Z,89
2024-01-04T06:38:10.061Z,89
2024-01-04T06:38:41.118Z,89
2024-01-04T06:39:12.277Z,89
2024-01-04T06:39:43.089Z,89
2024-01-04T06:40:14.730Z,89
2024-01-04T06:40:45.032Z,89
2024-01-04T06:41:16.128Z,88
2024-01-04T06:41:47.164Z,89
2024-01-04T06:42:18.718Z,89
2024-01-04T06:42:49.024Z,89
2024-01-04T06:43:20.291Z,89
2024-01-04T06:43:51.119Z,89
2024-01-04T06:44:26.110Z,89
2024-01-04T06:44:53.399Z,88
2024-01-04T06:45:24.870Z,89
2024-01-04T06:45:55.370Z,89
2024-01-04T06:46:26.265Z,89
2024-01-04T06:46:57.098Z,89
2024-01-04T06:47:28.129Z,89
2024-01-04T06:47:59.297Z,89
2024-01-04T06:48:30.295Z,89
2024-01-04T06:49:01.265Z,89
2024-01-04T06:49:32.346Z,89
2024-01-04T06:50:11.500Z,89
2024-01-04T06:50:34.141Z,89
2024-01-04T06:51:05.623Z,88
2024-01-04T06:51:36.062Z,88
2024-01-04T06:52:07.082Z,88
2024-01-04T06:52:38.094Z,88
2024-01-04T06:53:09.130Z,89
2024-01-04T06:53:40.414Z,88
2024-01-04T06:54:11.395Z,88
2024-01-04T06:54:42.158Z,88
2024-01-04T06:55:13.378Z,88
2024-01-04T06:55:44.025Z,88
2024-01-04T06:56:15.458Z,88
2024-01-04T06:56:46.095Z,88
2024-01-04T06:57:17.216Z,88
2024-01-04T06:57:48.052Z,88
2024-01-04T06:58:19.105Z,88
2024-01-04T06:58:50.129Z,89
2024-01-04T06:59:21.114Z,89
2024-01-04T06:59:52.108Z,88
2024-01-04T07:00:25.300Z,88
2024-01-04T07:00:54.324Z,88
2024-01-04T07:01:25.175Z,88
2024-01-04T07:01:56.070Z,88
2024-01-04T07:02:27.405Z,88
2024-01-04T07:02:58.106Z,89
2024-01-04T07:03:29.222Z,88
2024-01-04T07:04:01.987Z,88
2024-01-04T07:04:31.439Z,88
2024-01-04T07:05:02.776Z,88
2024-01-04T07:05:33.467Z,88
2024-01-04T07:06:04.434Z,88
2024-01-04T07:06:35.742Z,88
2024-01-04T07:07:06.493Z,88
2024-01-04T07:07:37.384Z,88
2024-01-04T07:08:08.376Z,88
2024-01-04T07:08:39.461Z,88
2024-01-04T07:09:10.443Z,88
2024-01-04T07:09:41.442Z,88
2024-01-04T07:10:12.936Z,88
2024-01-04T07:10:43.382Z,88
2024-01-04T07:11:14.736Z,88
2024-01-04T07:11:45.539Z,88
2024-01-04T07:12:16.481Z,88
2024-01-04T07:12:47.442Z,88
2024-01-04T07:13:18.422Z,88
2024-01-04T07:13:49.438Z,88
2024-01-04T07:14:20.472Z,88
2024-01-04T07:14:51.539Z,88
2024-01-04T07:15:23.361Z,88
2024-01-04T07:15:53.696Z,88
2024-01-04T07:16:24.563Z,89
2024-01-04T07:16:55.732Z,89
2024-01-04T07:17:26.600Z,88
2024-01-04T07:17:57.711Z,88
2024-01-04T07:18:28.570Z,88
2024-01-04T07:18:59.701Z,88
2024-01-04T07:19:30.603Z,88
2024-01-04T07:20:02.315Z,88
2024-01-04T07:20:32.395Z,88
2024-01-04T07:21:03.510Z,88
2024-01-04T07:21:34.560Z,88